Doylestown, Wisconsin
Current Conditions -  °F | °C
As of 9:53 AM on Monday 24 Nov 2014 (Local Time) from KMSN Reporting Station
Light Rain Light Rain  
Wind Chill: 29°   Ceiling: 1000
Heat Index: 37°   Visibility: 5mi
Dew Point: 34°   Wind: 13mph
Humidity: 89%   Direction: 290°WNW
Pressure: 29.17"   Gusts: 18mph
Location:  43.43°N, 89.15°W
Report Text: KMSN 241553Z 29011G16KT 5SM -RA BR OVC010 03/01 A2917 RMK AO2 DZE24RAB41 SLP882 P0000 T00280011
Loading
Personal Weather Stations






























Interactive Weather Map New forecast layout! Learn more

10-Day Weather Forecast

Advertisements
Track Severe Weather on mobile